Airport ICAO


22:56 UTC

7°C

Mist


An affordable passengers' Moving Map for your aircraft. Made for the iPad and the iPhone
More information here

LFLN


Saint Yan FRANCE   IFR CAT I


METAR LFLN 132230Z AUTO 04003KT 4700 BR NSC 07/07 Q1029 0h26min

TAF AMD LFLN 132026Z 1320/1403 VRB02KT 6000 BKN025 BECMG 1320/1322 3000 BR SCT001 PROB40 1322/1403 0300 FG VV/// 2h30min





NOTAMS

OPEN